sensor_id;sensor_type;location;lat;lon;timestamp;P1;durP1;ratioP1;P2;durP2;ratioP2
51584;SDS011;37669;50.312;18.670;2022-12-24T00:01:33;205.50;;;133.85;;
51584;SDS011;37669;50.312;18.670;2022-12-24T00:04:01;206.43;;;127.25;;
51584;SDS011;37669;50.312;18.670;2022-12-24T00:06:28;198.80;;;123.22;;
51584;SDS011;37669;50.312;18.670;2022-12-24T00:08:55;224.02;;;128.35;;
51584;SDS011;37669;50.312;18.670;2022-12-24T00:11:22;239.25;;;150.85;;
51584;SDS011;37669;50.312;18.670;2022-12-24T00:13:49;241.25;;;150.43;;
51584;SDS011;37669;50.312;18.670;2022-12-24T00:16:18;254.73;;;152.80;;
51584;SDS011;37669;50.312;18.670;2022-12-24T00:18:45;225.48;;;149.77;;
51584;SDS011;37669;50.312;18.670;2022-12-24T00:21:12;245.27;;;153.75;;
51584;SDS011;37669;50.312;18.670;2022-12-24T00:23:39;217.13;;;147.43;;
51584;SDS011;37669;50.312;18.670;2022-12-24T00:26:06;226.57;;;144.52;;
51584;SDS011;37669;50.312;18.670;2022-12-24T00:28:33;236.90;;;150.30;;
51584;SDS011;37669;50.312;18.670;2022-12-24T00:31:05;265.40;;;165.15;;
51584;SDS011;37669;50.312;18.670;2022-12-24T00:33:34;260.92;;;166.75;;
51584;SDS011;37669;50.312;18.670;2022-12-24T00:36:01;265.58;;;168.20;;
51584;SDS011;37669;50.312;18.670;2022-12-24T00:38:29;287.90;;;176.07;;
51584;SDS011;37669;50.312;18.670;2022-12-24T00:40:57;314.27;;;187.02;;
51584;SDS011;37669;50.312;18.670;2022-12-24T00:43:25;238.02;;;158.57;;
51584;SDS011;37669;50.312;18.670;2022-12-24T00:45:52;194.65;;;130.20;;
51584;SDS011;37669;50.312;18.670;2022-12-24T00:48:19;206.05;;;139.25;;
51584;SDS011;37669;50.312;18.670;2022-12-24T00:50:48;232.95;;;151.18;;
51584;SDS011;37669;50.312;18.670;2022-12-24T00:53:16;214.88;;;139.85;;
51584;SDS011;37669;50.312;18.670;2022-12-24T00:55:43;242.80;;;148.75;;
51584;SDS011;37669;50.312;18.670;2022-12-24T00:58:11;229.43;;;144.40;;
51584;SDS011;37669;50.312;18.670;2022-12-24T01:00:38;213.23;;;139.90;;
51584;SDS011;37669;50.312;18.670;2022-12-24T01:03:05;212.13;;;137.98;;
51584;SDS011;37669;50.312;18.670;2022-12-24T01:05:32;218.57;;;138.23;;
51584;SDS011;37669;50.312;18.670;2022-12-24T01:07:59;264.52;;;151.30;;
51584;SDS011;37669;50.312;18.670;2022-12-24T01:10:26;214.00;;;135.75;;
51584;SDS011;37669;50.312;18.670;2022-12-24T01:12:53;218.82;;;141.27;;
51584;SDS011;37669;50.312;18.670;2022-12-24T01:15:20;220.80;;;138.82;;
51584;SDS011;37669;50.312;18.670;2022-12-24T01:17:47;205.13;;;133.55;;
51584;SDS011;37669;50.312;18.670;2022-12-24T01:20:15;205.73;;;129.30;;
51584;SDS011;37669;50.312;18.670;2022-12-24T01:22:42;234.35;;;134.93;;
51584;SDS011;37669;50.312;18.670;2022-12-24T01:25:11;180.90;;;118.13;;
51584;SDS011;37669;50.312;18.670;2022-12-24T01:27:39;193.77;;;118.00;;
51584;SDS011;37669;50.312;18.670;2022-12-24T01:30:07;202.95;;;117.13;;
51584;SDS011;37669;50.312;18.670;2022-12-24T01:32:35;182.68;;;108.15;;
51584;SDS011;37669;50.312;18.670;2022-12-24T01:35:02;201.32;;;113.18;;
51584;SDS011;37669;50.312;18.670;2022-12-24T01:37:30;189.27;;;113.88;;
51584;SDS011;37669;50.312;18.670;2022-12-24T01:39:57;210.63;;;117.15;;
51584;SDS011;37669;50.312;18.670;2022-12-24T01:42:40;171.75;;;104.40;;
51584;SDS011;37669;50.312;18.670;2022-12-24T01:45:41;170.52;;;105.40;;
51584;SDS011;37669;50.312;18.670;2022-12-24T01:48:22;187.48;;;107.50;;
51584;SDS011;37669;50.312;18.670;2022-12-24T01:50:59;146.50;;;91.78;;
51584;SDS011;37669;50.312;18.670;2022-12-24T01:53:31;116.72;;;79.57;;
51584;SDS011;37669;50.312;18.670;2022-12-24T01:56:01;177.60;;;99.35;;
51584;SDS011;37669;50.312;18.670;2022-12-24T01:58:32;182.27;;;98.97;;
51584;SDS011;37669;50.312;18.670;2022-12-24T02:01:01;123.20;;;82.43;;
51584;SDS011;37669;50.312;18.670;2022-12-24T02:03:28;132.70;;;83.60;;
51584;SDS011;37669;50.312;18.670;2022-12-24T02:05:56;130.55;;;86.00;;
51584;SDS011;37669;50.312;18.670;2022-12-24T02:08:25;133.90;;;83.85;;
51584;SDS011;37669;50.312;18.670;2022-12-24T02:11:08;132.90;;;86.35;;
51584;SDS011;37669;50.312;18.670;2022-12-24T02:13:40;127.25;;;82.72;;
51584;SDS011;37669;50.312;18.670;2022-12-24T02:16:11;127.85;;;80.93;;
51584;SDS011;37669;50.312;18.670;2022-12-24T02:18:49;108.70;;;72.68;;
51584;SDS011;37669;50.312;18.670;2022-12-24T02:21:33;133.27;;;80.63;;
51584;SDS011;37669;50.312;18.670;2022-12-24T02:27:21;162.15;;;91.03;;
51584;SDS011;37669;50.312;18.670;2022-12-24T02:30:00;192.50;;;98.63;;
51584;SDS011;37669;50.312;18.670;2022-12-24T02:32:44;147.07;;;90.15;;
51584;SDS011;37669;50.312;18.670;2022-12-24T02:35:37;143.70;;;89.32;;
51584;SDS011;37669;50.312;18.670;2022-12-24T02:38:14;150.18;;;92.10;;
51584;SDS011;37669;50.312;18.670;2022-12-24T02:40:47;147.52;;;89.07;;
51584;SDS011;37669;50.312;18.670;2022-12-24T02:43:18;129.50;;;83.15;;
51584;SDS011;37669;50.312;18.670;2022-12-24T02:45:50;168.85;;;89.30;;
51584;SDS011;37669;50.312;18.670;2022-12-24T02:48:21;160.35;;;91.00;;
51584;SDS011;37669;50.312;18.670;2022-12-24T02:50:53;163.93;;;91.78;;
51584;SDS011;37669;50.312;18.670;2022-12-24T02:53:21;152.43;;;88.20;;
51584;SDS011;37669;50.312;18.670;2022-12-24T02:55:51;132.23;;;84.75;;
51584;SDS011;37669;50.312;18.670;2022-12-24T03:01:01;120.90;;;78.47;;
51584;SDS011;37669;50.312;18.670;2022-12-24T03:03:45;136.13;;;82.78;;
51584;SDS011;37669;50.312;18.670;2022-12-24T03:06:20;127.25;;;80.25;;
51584;SDS011;37669;50.312;18.670;2022-12-24T03:08:58;143.38;;;84.88;;
51584;SDS011;37669;50.312;18.670;2022-12-24T03:11:27;138.60;;;82.55;;
51584;SDS011;37669;50.312;18.670;2022-12-24T03:13:54;117.30;;;71.50;;
51584;SDS011;37669;50.312;18.670;2022-12-24T03:16:26;123.07;;;75.75;;
51584;SDS011;37669;50.312;18.670;2022-12-24T03:18:54;102.60;;;66.70;;
51584;SDS011;37669;50.312;18.670;2022-12-24T03:21:24;86.95;;;60.75;;
51584;SDS011;37669;50.312;18.670;2022-12-24T03:23:54;101.90;;;64.57;;
51584;SDS011;37669;50.312;18.670;2022-12-24T03:26:22;68.90;;;50.35;;
51584;SDS011;37669;50.312;18.670;2022-12-24T03:28:52;95.22;;;60.40;;
51584;SDS011;37669;50.312;18.670;2022-12-24T03:31:19;94.65;;;58.38;;
51584;SDS011;37669;50.312;18.670;2022-12-24T03:33:48;73.28;;;53.33;;
51584;SDS011;37669;50.312;18.670;2022-12-24T03:36:16;89.82;;;53.10;;
51584;SDS011;37669;50.312;18.670;2022-12-24T03:38:43;61.90;;;46.63;;
51584;SDS011;37669;50.312;18.670;2022-12-24T03:41:10;96.25;;;56.92;;
51584;SDS011;37669;50.312;18.670;2022-12-24T03:43:37;69.00;;;50.03;;
51584;SDS011;37669;50.312;18.670;2022-12-24T03:46:04;66.18;;;47.92;;
51584;SDS011;37669;50.312;18.670;2022-12-24T03:48:33;67.97;;;45.95;;
51584;SDS011;37669;50.312;18.670;2022-12-24T03:51:02;73.72;;;47.83;;
51584;SDS011;37669;50.312;18.670;2022-12-24T03:53:30;71.28;;;48.22;;
51584;SDS011;37669;50.312;18.670;2022-12-24T03:55:57;72.13;;;48.45;;
51584;SDS011;37669;50.312;18.670;2022-12-24T03:58:24;64.70;;;43.60;;
51584;SDS011;37669;50.312;18.670;2022-12-24T04:00:51;81.97;;;47.45;;
51584;SDS011;37669;50.312;18.670;2022-12-24T04:03:19;147.27;;;58.33;;
51584;SDS011;37669;50.312;18.670;2022-12-24T04:05:46;78.28;;;50.33;;
51584;SDS011;37669;50.312;18.670;2022-12-24T04:08:14;92.95;;;50.67;;
51584;SDS011;37669;50.312;18.670;2022-12-24T04:10:41;71.05;;;46.13;;
51584;SDS011;37669;50.312;18.670;2022-12-24T04:13:09;91.55;;;51.45;;
51584;SDS011;37669;50.312;18.670;2022-12-24T04:15:36;93.40;;;51.10;;
51584;SDS011;37669;50.312;18.670;2022-12-24T04:18:03;140.75;;;59.30;;
51584;SDS011;37669;50.312;18.670;2022-12-24T04:20:30;91.07;;;51.30;;
51584;SDS011;37669;50.312;18.670;2022-12-24T04:22:57;102.18;;;52.30;;
51584;SDS011;37669;50.312;18.670;2022-12-24T04:25:25;88.40;;;51.75;;
51584;SDS011;37669;50.312;18.670;2022-12-24T04:27:52;121.15;;;54.17;;
51584;SDS011;37669;50.312;18.670;2022-12-24T04:30:19;124.80;;;58.75;;
51584;SDS011;37669;50.312;18.670;2022-12-24T04:32:46;103.43;;;51.50;;
51584;SDS011;37669;50.312;18.670;2022-12-24T04:35:13;67.75;;;41.75;;
51584;SDS011;37669;50.312;18.670;2022-12-24T04:37:40;77.45;;;43.03;;
51584;SDS011;37669;50.312;18.670;2022-12-24T04:40:08;74.72;;;44.75;;
51584;SDS011;37669;50.312;18.670;2022-12-24T04:42:37;77.22;;;45.90;;
51584;SDS011;37669;50.312;18.670;2022-12-24T04:45:04;59.92;;;42.05;;
51584;SDS011;37669;50.312;18.670;2022-12-24T04:47:32;71.57;;;44.55;;
51584;SDS011;37669;50.312;18.670;2022-12-24T04:49:59;71.28;;;45.33;;
51584;SDS011;37669;50.312;18.670;2022-12-24T04:52:26;94.97;;;51.95;;
51584;SDS011;37669;50.312;18.670;2022-12-24T04:54:53;98.78;;;54.15;;
51584;SDS011;37669;50.312;18.670;2022-12-24T04:57:20;124.78;;;56.78;;
51584;SDS011;37669;50.312;18.670;2022-12-24T04:59:48;115.00;;;58.20;;
51584;SDS011;37669;50.312;18.670;2022-12-24T05:02:15;96.97;;;53.17;;
51584;SDS011;37669;50.312;18.670;2022-12-24T05:04:43;64.25;;;45.00;;
51584;SDS011;37669;50.312;18.670;2022-12-24T05:07:10;87.80;;;49.13;;
51584;SDS011;37669;50.312;18.670;2022-12-24T05:09:37;68.22;;;44.28;;
51584;SDS011;37669;50.312;18.670;2022-12-24T05:12:04;69.22;;;45.45;;
51584;SDS011;37669;50.312;18.670;2022-12-24T05:14:31;54.53;;;39.50;;
51584;SDS011;37669;50.312;18.670;2022-12-24T05:17:00;64.70;;;40.45;;
51584;SDS011;37669;50.312;18.670;2022-12-24T05:19:27;58.50;;;41.22;;
51584;SDS011;37669;50.312;18.670;2022-12-24T05:21:54;52.60;;;37.33;;
51584;SDS011;37669;50.312;18.670;2022-12-24T05:24:35;51.28;;;36.88;;
51584;SDS011;37669;50.312;18.670;2022-12-24T05:27:27;61.65;;;38.70;;
51584;SDS011;37669;50.312;18.670;2022-12-24T05:29:54;69.45;;;42.72;;
51584;SDS011;37669;50.312;18.670;2022-12-24T05:32:23;63.83;;;42.05;;
51584;SDS011;37669;50.312;18.670;2022-12-24T05:34:50;77.90;;;46.40;;
51584;SDS011;37669;50.312;18.670;2022-12-24T05:37:17;66.10;;;44.95;;
51584;SDS011;37669;50.312;18.670;2022-12-24T05:39:44;78.22;;;46.42;;
51584;SDS011;37669;50.312;18.670;2022-12-24T05:42:11;55.65;;;40.95;;
51584;SDS011;37669;50.312;18.670;2022-12-24T05:44:38;74.43;;;46.70;;
51584;SDS011;37669;50.312;18.670;2022-12-24T05:47:05;62.22;;;42.83;;
51584;SDS011;37669;50.312;18.670;2022-12-24T05:49:33;112.07;;;54.35;;
51584;SDS011;37669;50.312;18.670;2022-12-24T05:52:00;57.10;;;42.22;;
51584;SDS011;37669;50.312;18.670;2022-12-24T05:54:27;78.47;;;47.65;;
51584;SDS011;37669;50.312;18.670;2022-12-24T05:56:54;69.60;;;46.45;;
51584;SDS011;37669;50.312;18.670;2022-12-24T05:59:21;88.47;;;54.17;;
51584;SDS011;37669;50.312;18.670;2022-12-24T06:01:48;66.53;;;48.15;;
51584;SDS011;37669;50.312;18.670;2022-12-24T06:04:15;80.00;;;52.00;;
51584;SDS011;37669;50.312;18.670;2022-12-24T06:06:44;102.18;;;57.25;;
51584;SDS011;37669;50.312;18.670;2022-12-24T06:09:11;109.80;;;59.75;;
51584;SDS011;37669;50.312;18.670;2022-12-24T06:11:39;89.28;;;56.05;;
51584;SDS011;37669;50.312;18.670;2022-12-24T06:14:06;67.70;;;48.42;;
51584;SDS011;37669;50.312;18.670;2022-12-24T06:16:33;99.57;;;58.60;;
51584;SDS011;37669;50.312;18.670;2022-12-24T06:19:00;76.20;;;51.70;;
51584;SDS011;37669;50.312;18.670;2022-12-24T06:21:27;77.50;;;53.53;;
51584;SDS011;37669;50.312;18.670;2022-12-24T06:23:55;85.78;;;55.03;;
51584;SDS011;37669;50.312;18.670;2022-12-24T06:26:22;110.82;;;62.35;;
51584;SDS011;37669;50.312;18.670;2022-12-24T06:28:50;91.22;;;59.45;;
51584;SDS011;37669;50.312;18.670;2022-12-24T06:31:18;86.47;;;54.60;;
51584;SDS011;37669;50.312;18.670;2022-12-24T06:33:46;111.60;;;62.20;;
51584;SDS011;37669;50.312;18.670;2022-12-24T06:36:15;84.95;;;56.65;;
51584;SDS011;37669;50.312;18.670;2022-12-24T06:38:43;107.80;;;65.28;;
51584;SDS011;37669;50.312;18.670;2022-12-24T06:41:12;89.07;;;59.65;;
51584;SDS011;37669;50.312;18.670;2022-12-24T06:43:42;68.47;;;48.22;;
51584;SDS011;37669;50.312;18.670;2022-12-24T06:46:10;87.75;;;49.88;;
51584;SDS011;37669;50.312;18.670;2022-12-24T06:48:37;76.10;;;44.53;;
51584;SDS011;37669;50.312;18.670;2022-12-24T06:51:04;39.08;;;31.08;;
51584;SDS011;37669;50.312;18.670;2022-12-24T06:53:31;44.83;;;33.78;;
51584;SDS011;37669;50.312;18.670;2022-12-24T06:56:01;42.95;;;32.90;;
51584;SDS011;37669;50.312;18.670;2022-12-24T06:58:31;38.95;;;29.52;;
51584;SDS011;37669;50.312;18.670;2022-12-24T07:00:59;34.45;;;26.77;;
51584;SDS011;37669;50.312;18.670;2022-12-24T07:03:27;42.10;;;27.52;;
51584;SDS011;37669;50.312;18.670;2022-12-24T07:05:54;36.55;;;24.90;;
51584;SDS011;37669;50.312;18.670;2022-12-24T07:08:21;44.05;;;32.30;;
51584;SDS011;37669;50.312;18.670;2022-12-24T07:10:48;24.17;;;20.92;;
51584;SDS011;37669;50.312;18.670;2022-12-24T07:13:16;24.33;;;21.70;;
51584;SDS011;37669;50.312;18.670;2022-12-24T07:15:44;23.00;;;17.92;;
51584;SDS011;37669;50.312;18.670;2022-12-24T07:18:11;19.52;;;15.75;;
51584;SDS011;37669;50.312;18.670;2022-12-24T07:20:41;22.02;;;14.88;;
51584;SDS011;37669;50.312;18.670;2022-12-24T07:23:08;17.83;;;15.20;;
51584;SDS011;37669;50.312;18.670;2022-12-24T07:25:35;18.02;;;14.35;;
51584;SDS011;37669;50.312;18.670;2022-12-24T07:28:02;27.10;;;16.98;;
51584;SDS011;37669;50.312;18.670;2022-12-24T07:30:29;20.65;;;15.18;;
51584;SDS011;37669;50.312;18.670;2022-12-24T07:32:58;25.23;;;17.05;;
51584;SDS011;37669;50.312;18.670;2022-12-24T07:35:25;22.48;;;14.77;;
51584;SDS011;37669;50.312;18.670;2022-12-24T07:37:52;22.30;;;13.35;;
51584;SDS011;37669;50.312;18.670;2022-12-24T07:40:19;16.30;;;13.68;;
51584;SDS011;37669;50.312;18.670;2022-12-24T07:42:46;20.48;;;13.20;;
51584;SDS011;37669;50.312;18.670;2022-12-24T07:45:13;20.55;;;13.88;;
51584;SDS011;37669;50.312;18.670;2022-12-24T07:47:40;21.75;;;16.38;;
51584;SDS011;37669;50.312;18.670;2022-12-24T07:50:09;21.00;;;14.88;;
51584;SDS011;37669;50.312;18.670;2022-12-24T07:52:36;26.23;;;17.65;;
51584;SDS011;37669;50.312;18.670;2022-12-24T07:55:03;23.50;;;15.52;;
51584;SDS011;37669;50.312;18.670;2022-12-24T07:57:31;25.67;;;15.63;;
51584;SDS011;37669;50.312;18.670;2022-12-24T07:59:58;25.67;;;13.60;;
51584;SDS011;37669;50.312;18.670;2022-12-24T08:02:25;25.73;;;13.60;;
51584;SDS011;37669;50.312;18.670;2022-12-24T08:04:52;19.58;;;12.70;;
51584;SDS011;37669;50.312;18.670;2022-12-24T08:07:21;23.40;;;15.15;;
51584;SDS011;37669;50.312;18.670;2022-12-24T08:09:48;26.33;;;14.40;;
51584;SDS011;37669;50.312;18.670;2022-12-24T08:12:15;25.27;;;16.25;;
51584;SDS011;37669;50.312;18.670;2022-12-24T08:14:42;21.30;;;14.73;;
51584;SDS011;37669;50.312;18.670;2022-12-24T08:17:09;24.95;;;15.63;;
51584;SDS011;37669;50.312;18.670;2022-12-24T08:19:36;21.83;;;15.07;;
51584;SDS011;37669;50.312;18.670;2022-12-24T08:22:04;30.95;;;18.40;;
51584;SDS011;37669;50.312;18.670;2022-12-24T08:24:32;28.70;;;17.10;;
51584;SDS011;37669;50.312;18.670;2022-12-24T08:26:59;32.90;;;18.48;;
51584;SDS011;37669;50.312;18.670;2022-12-24T08:29:26;30.08;;;19.67;;
51584;SDS011;37669;50.312;18.670;2022-12-24T08:31:53;72.63;;;41.50;;
51584;SDS011;37669;50.312;18.670;2022-12-24T08:34:20;55.65;;;34.10;;
51584;SDS011;37669;50.312;18.670;2022-12-24T08:36:48;44.00;;;30.30;;
51584;SDS011;37669;50.312;18.670;2022-12-24T08:39:14;91.63;;;40.63;;
51584;SDS011;37669;50.312;18.670;2022-12-24T08:41:43;75.03;;;34.05;;
51584;SDS011;37669;50.312;18.670;2022-12-24T08:44:10;30.23;;;15.75;;
51584;SDS011;37669;50.312;18.670;2022-12-24T08:46:37;37.25;;;21.10;;
51584;SDS011;37669;50.312;18.670;2022-12-24T08:49:04;41.63;;;18.13;;
51584;SDS011;37669;50.312;18.670;2022-12-24T08:51:31;40.70;;;19.95;;
51584;SDS011;37669;50.312;18.670;2022-12-24T08:53:58;40.50;;;22.67;;
51584;SDS011;37669;50.312;18.670;2022-12-24T08:56:25;39.67;;;22.95;;
51584;SDS011;37669;50.312;18.670;2022-12-24T08:58:54;23.05;;;15.88;;
51584;SDS011;37669;50.312;18.670;2022-12-24T09:01:21;27.67;;;15.80;;
51584;SDS011;37669;50.312;18.670;2022-12-24T09:03:49;16.08;;;10.70;;
51584;SDS011;37669;50.312;18.670;2022-12-24T09:06:16;99.80;;;59.58;;
51584;SDS011;37669;50.312;18.670;2022-12-24T09:08:43;32.80;;;22.52;;
51584;SDS011;37669;50.312;18.670;2022-12-24T09:11:11;17.83;;;11.60;;
51584;SDS011;37669;50.312;18.670;2022-12-24T09:13:39;21.42;;;12.73;;
51584;SDS011;37669;50.312;18.670;2022-12-24T09:16:10;20.40;;;11.93;;
51584;SDS011;37669;50.312;18.670;2022-12-24T09:18:37;27.08;;;15.98;;
51584;SDS011;37669;50.312;18.670;2022-12-24T09:21:05;19.35;;;11.45;;
51584;SDS011;37669;50.312;18.670;2022-12-24T09:23:33;19.10;;;11.32;;
51584;SDS011;37669;50.312;18.670;2022-12-24T09:26:04;26.70;;;17.65;;
51584;SDS011;37669;50.312;18.670;2022-12-24T09:28:31;26.33;;;16.10;;
51584;SDS011;37669;50.312;18.670;2022-12-24T09:30:58;28.25;;;16.48;;
51584;SDS011;37669;50.312;18.670;2022-12-24T09:33:29;37.08;;;24.88;;
51584;SDS011;37669;50.312;18.670;2022-12-24T09:35:57;23.60;;;15.57;;
51584;SDS011;37669;50.312;18.670;2022-12-24T09:38:24;29.02;;;19.33;;
51584;SDS011;37669;50.312;18.670;2022-12-24T09:40:52;26.77;;;17.92;;
51584;SDS011;37669;50.312;18.670;2022-12-24T09:43:21;26.63;;;17.52;;
51584;SDS011;37669;50.312;18.670;2022-12-24T09:45:52;25.27;;;17.17;;
51584;SDS011;37669;50.312;18.670;2022-12-24T09:48:29;21.33;;;14.63;;
51584;SDS011;37669;50.312;18.670;2022-12-24T09:51:00;21.35;;;13.45;;
51584;SDS011;37669;50.312;18.670;2022-12-24T09:53:33;30.13;;;18.88;;
51584;SDS011;37669;50.312;18.670;2022-12-24T09:56:08;24.95;;;12.63;;
51584;SDS011;37669;50.312;18.670;2022-12-24T09:58:39;27.40;;;12.07;;
51584;SDS011;37669;50.312;18.670;2022-12-24T10:01:11;21.33;;;11.40;;
51584;SDS011;37669;50.312;18.670;2022-12-24T10:03:41;16.38;;;10.85;;
51584;SDS011;37669;50.312;18.670;2022-12-24T10:06:09;24.45;;;9.48;;
51584;SDS011;37669;50.312;18.670;2022-12-24T10:08:47;18.85;;;9.63;;
51584;SDS011;37669;50.312;18.670;2022-12-24T10:11:26;19.35;;;9.15;;
51584;SDS011;37669;50.312;18.670;2022-12-24T10:14:00;21.02;;;10.23;;
51584;SDS011;37669;50.312;18.670;2022-12-24T10:16:39;15.38;;;7.20;;
51584;SDS011;37669;50.312;18.670;2022-12-24T10:19:16;21.00;;;7.47;;
51584;SDS011;37669;50.312;18.670;2022-12-24T10:21:49;19.08;;;7.28;;
51584;SDS011;37669;50.312;18.670;2022-12-24T10:24:28;15.68;;;7.30;;
51584;SDS011;37669;50.312;18.670;2022-12-24T10:27:01;16.92;;;7.55;;
51584;SDS011;37669;50.312;18.670;2022-12-24T10:29:39;16.65;;;7.18;;
51584;SDS011;37669;50.312;18.670;2022-12-24T10:32:12;15.55;;;7.45;;
51584;SDS011;37669;50.312;18.670;2022-12-24T10:34:48;13.45;;;8.00;;
51584;SDS011;37669;50.312;18.670;2022-12-24T10:37:20;23.65;;;8.18;;
51584;SDS011;37669;50.312;18.670;2022-12-24T10:39:49;18.08;;;8.63;;
51584;SDS011;37669;50.312;18.670;2022-12-24T10:42:16;18.60;;;8.70;;
51584;SDS011;37669;50.312;18.670;2022-12-24T10:44:46;25.75;;;9.40;;
51584;SDS011;37669;50.312;18.670;2022-12-24T10:47:17;19.38;;;9.77;;
51584;SDS011;37669;50.312;18.670;2022-12-24T10:49:51;16.95;;;8.73;;
51584;SDS011;37669;50.312;18.670;2022-12-24T10:52:23;17.80;;;8.88;;
51584;SDS011;37669;50.312;18.670;2022-12-24T10:55:07;15.52;;;9.13;;
51584;SDS011;37669;50.312;18.670;2022-12-24T10:57:36;15.57;;;8.90;;
51584;SDS011;37669;50.312;18.670;2022-12-24T11:00:06;20.85;;;8.95;;
51584;SDS011;37669;50.312;18.670;2022-12-24T11:02:45;18.20;;;8.52;;
51584;SDS011;37669;50.312;18.670;2022-12-24T11:05:27;19.33;;;8.82;;
51584;SDS011;37669;50.312;18.670;2022-12-24T11:07:58;23.33;;;9.00;;
51584;SDS011;37669;50.312;18.670;2022-12-24T11:10:26;26.98;;;12.25;;
51584;SDS011;37669;50.312;18.670;2022-12-24T11:12:53;22.98;;;12.50;;
51584;SDS011;37669;50.312;18.670;2022-12-24T11:15:21;22.17;;;10.85;;
51584;SDS011;37669;50.312;18.670;2022-12-24T11:17:52;22.75;;;9.98;;
51584;SDS011;37669;50.312;18.670;2022-12-24T11:20:21;22.63;;;11.20;;
51584;SDS011;37669;50.312;18.670;2022-12-24T11:22:54;24.05;;;10.98;;
51584;SDS011;37669;50.312;18.670;2022-12-24T11:25:23;19.83;;;10.82;;
51584;SDS011;37669;50.312;18.670;2022-12-24T11:27:53;22.65;;;12.40;;
51584;SDS011;37669;50.312;18.670;2022-12-24T11:30:22;29.05;;;13.75;;
51584;SDS011;37669;50.312;18.670;2022-12-24T11:35:52;27.88;;;13.20;;
51584;SDS011;37669;50.312;18.670;2022-12-24T11:38:25;27.38;;;10.68;;
51584;SDS011;37669;50.312;18.670;2022-12-24T11:40:57;22.77;;;11.80;;
51584;SDS011;37669;50.312;18.670;2022-12-24T11:43:26;24.02;;;11.05;;
51584;SDS011;37669;50.312;18.670;2022-12-24T11:46:21;17.90;;;10.57;;
51584;SDS011;37669;50.312;18.670;2022-12-24T11:49:06;18.98;;;9.50;;
51584;SDS011;37669;50.312;18.670;2022-12-24T11:51:45;20.17;;;9.68;;
51584;SDS011;37669;50.312;18.670;2022-12-24T11:54:31;14.70;;;9.32;;
51584;SDS011;37669;50.312;18.670;2022-12-24T11:57:03;18.83;;;8.32;;
51584;SDS011;37669;50.312;18.670;2022-12-24T11:59:32;16.80;;;8.32;;
51584;SDS011;37669;50.312;18.670;2022-12-24T12:02:08;14.98;;;7.75;;
51584;SDS011;37669;50.312;18.670;2022-12-24T12:04:44;18.85;;;7.60;;
51584;SDS011;37669;50.312;18.670;2022-12-24T12:07:16;19.65;;;7.22;;
51584;SDS011;37669;50.312;18.670;2022-12-24T12:09:48;17.02;;;7.95;;
51584;SDS011;37669;50.312;18.670;2022-12-24T12:12:18;21.38;;;12.52;;
51584;SDS011;37669;50.312;18.670;2022-12-24T12:14:49;43.95;;;25.52;;
51584;SDS011;37669;50.312;18.670;2022-12-24T12:17:22;27.92;;;18.15;;
51584;SDS011;37669;50.312;18.670;2022-12-24T12:19:56;25.60;;;14.93;;
51584;SDS011;37669;50.312;18.670;2022-12-24T12:22:29;32.17;;;21.13;;
51584;SDS011;37669;50.312;18.670;2022-12-24T12:25:02;25.50;;;12.45;;
51584;SDS011;37669;50.312;18.670;2022-12-24T12:27:32;20.60;;;10.10;;
51584;SDS011;37669;50.312;18.670;2022-12-24T12:30:05;15.63;;;7.30;;
51584;SDS011;37669;50.312;18.670;2022-12-24T12:32:41;14.25;;;7.80;;
51584;SDS011;37669;50.312;18.670;2022-12-24T12:35:15;20.67;;;8.63;;
51584;SDS011;37669;50.312;18.670;2022-12-24T12:37:51;23.35;;;9.93;;
51584;SDS011;37669;50.312;18.670;2022-12-24T12:40:25;16.65;;;9.48;;
51584;SDS011;37669;50.312;18.670;2022-12-24T12:43:01;16.13;;;8.77;;
51584;SDS011;37669;50.312;18.670;2022-12-24T12:45:35;17.30;;;9.02;;
51584;SDS011;37669;50.312;18.670;2022-12-24T12:51:01;25.13;;;10.65;;
51584;SDS011;37669;50.312;18.670;2022-12-24T12:53:38;18.90;;;10.85;;
51584;SDS011;37669;50.312;18.670;2022-12-24T12:56:20;24.83;;;12.13;;
51584;SDS011;37669;50.312;18.670;2022-12-24T12:58:54;24.38;;;12.45;;
51584;SDS011;37669;50.312;18.670;2022-12-24T13:01:30;28.70;;;11.80;;
51584;SDS011;37669;50.312;18.670;2022-12-24T13:04:13;27.42;;;13.77;;
51584;SDS011;37669;50.312;18.670;2022-12-24T13:13:01;25.90;;;9.68;;
51584;SDS011;37669;50.312;18.670;2022-12-24T13:16:07;25.83;;;10.75;;
51584;SDS011;37669;50.312;18.670;2022-12-24T13:18:55;23.15;;;9.40;;
51584;SDS011;37669;50.312;18.670;2022-12-24T13:21:29;19.65;;;9.73;;
51584;SDS011;37669;50.312;18.670;2022-12-24T13:24:03;26.67;;;11.30;;
51584;SDS011;37669;50.312;18.670;2022-12-24T13:26:32;26.33;;;11.48;;
51584;SDS011;37669;50.312;18.670;2022-12-24T13:35:25;29.75;;;12.30;;
51584;SDS011;37669;50.312;18.670;2022-12-24T13:38:28;54.45;;;30.05;;
51584;SDS011;37669;50.312;18.670;2022-12-24T13:44:33;40.60;;;19.30;;
51584;SDS011;37669;50.312;18.670;2022-12-24T13:47:13;38.47;;;18.23;;
51584;SDS011;37669;50.312;18.670;2022-12-24T13:49:45;48.63;;;20.77;;
51584;SDS011;37669;50.312;18.670;2022-12-24T13:52:22;49.65;;;25.50;;
51584;SDS011;37669;50.312;18.670;2022-12-24T13:55:12;38.58;;;18.23;;
51584;SDS011;37669;50.312;18.670;2022-12-24T13:57:42;44.58;;;20.02;;
51584;SDS011;37669;50.312;18.670;2022-12-24T14:00:29;101.72;;;42.75;;
51584;SDS011;37669;50.312;18.670;2022-12-24T14:02:59;42.45;;;17.63;;
51584;SDS011;37669;50.312;18.670;2022-12-24T14:05:31;35.60;;;14.57;;
51584;SDS011;37669;50.312;18.670;2022-12-24T14:08:02;30.17;;;14.27;;
51584;SDS011;37669;50.312;18.670;2022-12-24T14:10:39;26.20;;;11.20;;
51584;SDS011;37669;50.312;18.670;2022-12-24T14:16:11;35.28;;;12.20;;
51584;SDS011;37669;50.312;18.670;2022-12-24T14:18:42;31.33;;;11.90;;
51584;SDS011;37669;50.312;18.670;2022-12-24T14:21:14;29.73;;;12.95;;
51584;SDS011;37669;50.312;18.670;2022-12-24T14:23:43;41.78;;;13.95;;
51584;SDS011;37669;50.312;18.670;2022-12-24T14:26:17;31.05;;;14.68;;
51584;SDS011;37669;50.312;18.670;2022-12-24T14:28:47;38.53;;;18.40;;
51584;SDS011;37669;50.312;18.670;2022-12-24T14:31:21;35.22;;;16.10;;
51584;SDS011;37669;50.312;18.670;2022-12-24T14:33:49;33.58;;;15.95;;
51584;SDS011;37669;50.312;18.670;2022-12-24T14:36:18;32.20;;;16.10;;
51584;SDS011;37669;50.312;18.670;2022-12-24T14:38:47;37.70;;;16.23;;
51584;SDS011;37669;50.312;18.670;2022-12-24T14:41:22;34.05;;;15.75;;
51584;SDS011;37669;50.312;18.670;2022-12-24T14:43:59;37.05;;;16.35;;
51584;SDS011;37669;50.312;18.670;2022-12-24T14:46:38;27.95;;;13.43;;
51584;SDS011;37669;50.312;18.670;2022-12-24T14:49:12;31.42;;;14.13;;
51584;SDS011;37669;50.312;18.670;2022-12-24T14:51:50;31.13;;;13.70;;
51584;SDS011;37669;50.312;18.670;2022-12-24T14:54:27;35.80;;;14.05;;
51584;SDS011;37669;50.312;18.670;2022-12-24T14:57:12;36.85;;;15.70;;